Aguire, Philippines

7:12 PM +08 on April 27, 2017 (GMT +0800)
BRGY 19, Masintoc | | Change Station

Elev 20 ft 18.08 °N, 120.49 °E | Updated 1 second ago

Partly Cloudy
Partly Cloudy
84.7 °F
Feels Like 86 °F
N
0.4
Wind Variable Wind from West
Gusts 2.5 mph

Today
High -- | Low -- °F
--% Chance of Precip.
Yesterday
High -- | Low -- °F
Precip. -- in
Pressure 29.77 in
Visibility 6.2 miles
Clouds Few 1900 ft
Heat Index 86 °F
Dew Point 65 °F
Humidity 51%
Rainfall 0.00 in
Snow Depth Not available.
5:33 AM 6:17 PM
New Moon, 1% visible
METAR RPLI 271100Z 34010KT 9999 FEW019 29/24 Q1008 NOSIG RMK A2977
Pressure 29.77 in
Visibility 6.2 miles
Clouds Few 1900 ft
Heat Index 86 °F
Dew Point 65 °F
Humidity 51%
Rainfall 0.00 in
Snow Depth Not available.
5:33 AM 6:17 PM
New Moon, 1% visible
METAR RPLI 271100Z 34010KT 9999 FEW019 29/24 Q1008 NOSIG RMK A2977

Get Severe Weather Alerts

Thanks for signing up!

Be on the lookout for a verification email in your inbox.

You'll start receiving the daily forecast at 8 AM.

×

10-Day Weather Forecast

No radar image for this location.
×

Almanac

Astronomy

Apr. 27, 2017 Rise Set
Actual Time
Civil Twilight
Nautical Twilight
Astronomical Twilight
Moon
Length of Visible Light
Length of Day
Tomorrow will be .
, % of the Moon is Illuminated

Today's Extremes

Country Highs Country Lows

Community

WunderPhotos

WunderBlog® & News

Nearby

Air Quality

  Air Quality AQ Index Pollutant
Not available.

Snow Depth

Station Depth Elevation

Earthquake Activity

City Distance Mag. Time & Date
Minimum magnitude displayed is 2.5.

Coastal Water Temperatures

Place Temperature

Stations

Nearby Weather Stations

Station Location Temp. Windchill Dew Point Humidity Wind Precip. Elev Updated Type